sensor_id;sensor_type;location;lat;lon;timestamp;pressure;altitude;pressure_sealevel;temperature;humidity
62152;BME280;48139;47.474;19.034;2023-03-03T04:48:30;100524.72;;;5.15;100.00
62152;BME280;48139;47.474;19.034;2023-03-03T04:51:34;100524.72;;;5.15;100.00
62152;BME280;48139;47.474;19.034;2023-03-03T04:54:37;100528.22;;;4.74;100.00
62152;BME280;48139;47.474;19.034;2023-03-03T04:57:41;100535.09;;;4.75;100.00
62152;BME280;48139;47.474;19.034;2023-03-03T05:00:47;100534.12;;;4.80;100.00
62152;BME280;48139;47.474;19.034;2023-03-03T05:03:54;100527.09;;;4.85;100.00
62152;BME280;48139;47.474;19.034;2023-03-03T05:06:57;100532.25;;;4.87;100.00
62152;BME280;48139;47.474;19.034;2023-03-03T05:10:00;100531.31;;;4.91;100.00
62152;BME280;48139;47.474;19.034;2023-03-03T05:13:03;100538.22;;;4.92;100.00
62152;BME280;48139;47.474;19.034;2023-03-03T05:16:06;100538.81;;;5.05;100.00
62152;BME280;48139;47.474;19.034;2023-03-03T05:19:09;100537.84;;;5.07;100.00
62152;BME280;48139;47.474;19.034;2023-03-03T05:22:12;100524.16;;;5.01;100.00
62152;BME280;48139;47.474;19.034;2023-03-03T05:25:15;100522.72;;;5.26;100.00
62152;BME280;48139;47.474;19.034;2023-03-03T05:28:18;100533.34;;;5.15;100.00
62152;BME280;48139;47.474;19.034;2023-03-03T05:31:20;100535.19;;;5.12;100.00
62152;BME280;48139;47.474;19.034;2023-03-03T05:34:23;100542.97;;;5.12;100.00
62152;BME280;48139;47.474;19.034;2023-03-03T05:37:26;100538.56;;;5.15;100.00
62152;BME280;48139;47.474;19.034;2023-03-03T05:40:28;100533.75;;;4.97;100.00
62152;BME280;48139;47.474;19.034;2023-03-03T05:43:31;100544.16;;;4.97;100.00
62152;BME280;48139;47.474;19.034;2023-03-03T05:46:34;100544.91;;;5.01;100.00
62152;BME280;48139;47.474;19.034;2023-03-03T05:49:36;100543.06;;;5.07;100.00
62152;BME280;48139;47.474;19.034;2023-03-03T05:52:39;100546.41;;;5.12;100.00
62152;BME280;48139;47.474;19.034;2023-03-03T05:55:42;100547.38;;;5.08;100.00
62152;BME280;48139;47.474;19.034;2023-03-03T05:58:44;100552.22;;;5.23;100.00
62152;BME280;48139;47.474;19.034;2023-03-03T06:01:47;100548.97;;;5.14;100.00
62152;BME280;48139;47.474;19.034;2023-03-03T06:04:49;100554.91;;;5.19;100.00
62152;BME280;48139;47.474;19.034;2023-03-03T06:07:52;100552.97;;;5.28;100.00
62152;BME280;48139;47.474;19.034;2023-03-03T06:10:55;100546.06;;;5.27;100.00
62152;BME280;48139;47.474;19.034;2023-03-03T06:13:58;100546.91;;;5.30;100.00
62152;BME280;48139;47.474;19.034;2023-03-03T06:17:01;100551.94;;;5.37;100.00
62152;BME280;48139;47.474;19.034;2023-03-03T06:20:05;100548.34;;;5.43;100.00
62152;BME280;48139;47.474;19.034;2023-03-03T06:23:08;100551.09;;;5.72;100.00
62152;BME280;48139;47.474;19.034;2023-03-03T06:26:10;100548.53;;;5.71;100.00
62152;BME280;48139;47.474;19.034;2023-03-03T06:29:13;100554.69;;;5.66;100.00
62152;BME280;48139;47.474;19.034;2023-03-03T06:32:17;100556.19;;;5.75;100.00
62152;BME280;48139;47.474;19.034;2023-03-03T06:35:20;100558.63;;;5.83;100.00
62152;BME280;48139;47.474;19.034;2023-03-03T06:38:23;100561.69;;;6.00;100.00
62152;BME280;48139;47.474;19.034;2023-03-03T06:41:26;100560.25;;;5.88;100.00
62152;BME280;48139;47.474;19.034;2023-03-03T06:44:28;100559.31;;;5.91;100.00
62152;BME280;48139;47.474;19.034;2023-03-03T06:47:31;100565.09;;;6.02;100.00
62152;BME280;48139;47.474;19.034;2023-03-03T06:50:35;100566.22;;;6.26;100.00
62152;BME280;48139;47.474;19.034;2023-03-03T06:53:38;100568.28;;;6.45;100.00
62152;BME280;48139;47.474;19.034;2023-03-03T06:56:42;100570.38;;;6.65;100.00
62152;BME280;48139;47.474;19.034;2023-03-03T06:59:48;100576.31;;;6.69;100.00
62152;BME280;48139;47.474;19.034;2023-03-03T07:02:58;100582.03;;;6.81;100.00
62152;BME280;48139;47.474;19.034;2023-03-03T07:06:23;100579.41;;;6.83;100.00
62152;BME280;48139;47.474;19.034;2023-03-03T07:09:28;100578.31;;;6.92;100.00
62152;BME280;48139;47.474;19.034;2023-03-03T07:12:31;100588.38;;;6.73;100.00
62152;BME280;48139;47.474;19.034;2023-03-03T07:15:37;100585.81;;;6.71;100.00
62152;BME280;48139;47.474;19.034;2023-03-03T07:18:53;100590.59;;;6.86;100.00
62152;BME280;48139;47.474;19.034;2023-03-03T07:21:56;100597.81;;;7.06;100.00
62152;BME280;48139;47.474;19.034;2023-03-03T07:25:00;100592.44;;;7.12;100.00
62152;BME280;48139;47.474;19.034;2023-03-03T07:28:22;100598.66;;;7.08;100.00
62152;BME280;48139;47.474;19.034;2023-03-03T07:31:34;100605.16;;;7.23;100.00
62152;BME280;48139;47.474;19.034;2023-03-03T07:34:47;100601.53;;;7.28;100.00
62152;BME280;48139;47.474;19.034;2023-03-03T07:37:50;100611.84;;;7.32;100.00
62152;BME280;48139;47.474;19.034;2023-03-03T07:40:55;100609.16;;;7.35;100.00
62152;BME280;48139;47.474;19.034;2023-03-03T07:44:05;100609.97;;;7.37;100.00
62152;BME280;48139;47.474;19.034;2023-03-03T07:50:32;100604.28;;;7.52;100.00
62152;BME280;48139;47.474;19.034;2023-03-03T07:53:36;100607.22;;;7.69;100.00
62152;BME280;48139;47.474;19.034;2023-03-03T07:56:39;100606.56;;;7.90;100.00
62152;BME280;48139;47.474;19.034;2023-03-03T07:59:53;100605.28;;;8.02;100.00
62152;BME280;48139;47.474;19.034;2023-03-03T08:03:04;100611.09;;;8.12;100.00
62152;BME280;48139;47.474;19.034;2023-03-03T08:09:58;100601.47;;;8.38;100.00
62152;BME280;48139;47.474;19.034;2023-03-03T08:13:11;100607.09;;;8.53;100.00
62152;BME280;48139;47.474;19.034;2023-03-03T08:16:20;100607.47;;;8.67;100.00
62152;BME280;48139;47.474;19.034;2023-03-03T08:19:27;100599.37;;;8.74;99.56
62152;BME280;48139;47.474;19.034;2023-03-03T08:22:34;100594.66;;;8.84;99.33
62152;BME280;48139;47.474;19.034;2023-03-03T08:25:40;100600.16;;;8.76;99.57
62152;BME280;48139;47.474;19.034;2023-03-03T08:28:44;100597.31;;;8.82;100.00
62152;BME280;48139;47.474;19.034;2023-03-03T08:31:47;100597.09;;;8.88;99.91
62152;BME280;48139;47.474;19.034;2023-03-03T08:34:49;100604.97;;;9.12;98.98
62152;BME280;48139;47.474;19.034;2023-03-03T08:37:52;100600.28;;;9.20;98.67
62152;BME280;48139;47.474;19.034;2023-03-03T08:40:55;100598.28;;;9.26;98.19
62152;BME280;48139;47.474;19.034;2023-03-03T08:43:58;100596.25;;;9.35;98.13
62152;BME280;48139;47.474;19.034;2023-03-03T08:47:00;100597.00;;;9.60;96.67
62152;BME280;48139;47.474;19.034;2023-03-03T08:50:03;100593.91;;;9.72;95.11
62152;BME280;48139;47.474;19.034;2023-03-03T08:53:07;100601.97;;;10.09;93.37
62152;BME280;48139;47.474;19.034;2023-03-03T08:56:10;100595.69;;;10.35;90.62
62152;BME280;48139;47.474;19.034;2023-03-03T08:59:12;100593.44;;;10.46;89.80
62152;BME280;48139;47.474;19.034;2023-03-03T09:02:15;100602.03;;;10.50;89.37
62152;BME280;48139;47.474;19.034;2023-03-03T09:05:19;100590.25;;;10.40;89.13
62152;BME280;48139;47.474;19.034;2023-03-03T09:08:22;100589.00;;;10.48;89.69
62152;BME280;48139;47.474;19.034;2023-03-03T09:11:27;100596.25;;;10.62;87.59
62152;BME280;48139;47.474;19.034;2023-03-03T09:14:30;100591.78;;;10.84;86.01
62152;BME280;48139;47.474;19.034;2023-03-03T09:17:34;100589.66;;;10.74;86.54
62152;BME280;48139;47.474;19.034;2023-03-03T09:23:55;100597.03;;;10.84;86.33
62152;BME280;48139;47.474;19.034;2023-03-03T09:26:58;100595.03;;;10.89;85.38
62152;BME280;48139;47.474;19.034;2023-03-03T09:33:48;100591.88;;;11.02;82.75
62152;BME280;48139;47.474;19.034;2023-03-03T09:36:53;100598.34;;;11.32;82.26
62152;BME280;48139;47.474;19.034;2023-03-03T09:39:57;100583.41;;;11.70;78.24
62152;BME280;48139;47.474;19.034;2023-03-03T09:49:35;100589.69;;;11.86;75.20
62152;BME280;48139;47.474;19.034;2023-03-03T10:07:06;100583.41;;;11.70;71.68
62152;BME280;48139;47.474;19.034;2023-03-03T10:10:36;100581.72;;;11.88;68.31
62152;BME280;48139;47.474;19.034;2023-03-03T10:17:19;100579.81;;;12.60;65.17
62152;BME280;48139;47.474;19.034;2023-03-03T10:24:01;100568.38;;;12.27;65.95
62152;BME280;48139;47.474;19.034;2023-03-03T10:27:52;100569.00;;;12.49;66.09
62152;BME280;48139;47.474;19.034;2023-03-03T10:34:51;100561.72;;;12.54;65.86
62152;BME280;48139;47.474;19.034;2023-03-03T10:38:20;100558.94;;;12.40;66.73
62152;BME280;48139;47.474;19.034;2023-03-03T10:41:42;100559.53;;;12.62;64.41
62152;BME280;48139;47.474;19.034;2023-03-03T10:48:22;100548.34;;;12.59;64.50
62152;BME280;48139;47.474;19.034;2023-03-03T10:51:48;100554.78;;;12.19;66.38
62152;BME280;48139;47.474;19.034;2023-03-03T10:55:11;100546.34;;;11.78;69.43
62152;BME280;48139;47.474;19.034;2023-03-03T10:58:45;100541.19;;;11.93;68.40
62152;BME280;48139;47.474;19.034;2023-03-03T11:02:25;100538.66;;;11.92;68.83
62152;BME280;48139;47.474;19.034;2023-03-03T11:05:45;100527.97;;;12.12;67.65
62152;BME280;48139;47.474;19.034;2023-03-03T11:08:56;100531.16;;;12.36;67.37
62152;BME280;48139;47.474;19.034;2023-03-03T11:12:51;100527.59;;;12.70;64.03
62152;BME280;48139;47.474;19.034;2023-03-03T11:36:08;100486.84;;;12.94;59.73
62152;BME280;48139;47.474;19.034;2023-03-03T11:39:15;100481.59;;;13.10;60.81
62152;BME280;48139;47.474;19.034;2023-03-03T11:45:53;100484.06;;;13.13;59.53
62152;BME280;48139;47.474;19.034;2023-03-03T11:49:10;100481.84;;;12.89;61.11
62152;BME280;48139;47.474;19.034;2023-03-03T11:55:26;100466.16;;;13.04;61.36
62152;BME280;48139;47.474;19.034;2023-03-03T11:58:43;100465.25;;;13.20;60.93
62152;BME280;48139;47.474;19.034;2023-03-03T12:02:00;100457.44;;;13.64;58.59
62152;BME280;48139;47.474;19.034;2023-03-03T12:08:42;100451.38;;;13.78;57.10
62152;BME280;48139;47.474;19.034;2023-03-03T12:11:56;100454.63;;;13.97;56.33
62152;BME280;48139;47.474;19.034;2023-03-03T12:15:06;100447.97;;;14.20;56.66
62152;BME280;48139;47.474;19.034;2023-03-03T12:18:23;100449.28;;;14.27;54.08
62152;BME280;48139;47.474;19.034;2023-03-03T12:28:37;100432.03;;;14.92;53.50
62152;BME280;48139;47.474;19.034;2023-03-03T12:35:12;100430.75;;;15.12;51.05
62152;BME280;48139;47.474;19.034;2023-03-03T12:42:22;100418.34;;;15.00;51.76
62152;BME280;48139;47.474;19.034;2023-03-03T12:45:39;100417.66;;;14.84;51.44
62152;BME280;48139;47.474;19.034;2023-03-03T12:48:44;100417.72;;;14.82;51.98
62152;BME280;48139;47.474;19.034;2023-03-03T12:55:20;100445.25;;;14.64;50.03
62152;BME280;48139;47.474;19.034;2023-03-03T13:12:33;100429.84;;;13.42;52.96
62152;BME280;48139;47.474;19.034;2023-03-03T13:15:57;100429.53;;;13.16;53.50
62152;BME280;48139;47.474;19.034;2023-03-03T13:19:10;100423.66;;;13.11;53.08
62152;BME280;48139;47.474;19.034;2023-03-03T13:22:30;100423.16;;;13.20;53.22
62152;BME280;48139;47.474;19.034;2023-03-03T13:29:03;100418.66;;;13.52;50.32
62152;BME280;48139;47.474;19.034;2023-03-03T13:32:22;100416.03;;;13.52;48.75
62152;BME280;48139;47.474;19.034;2023-03-03T13:35:46;100399.59;;;13.63;48.74
62152;BME280;48139;47.474;19.034;2023-03-03T13:38:54;100402.13;;;13.50;49.00
62152;BME280;48139;47.474;19.034;2023-03-03T13:42:02;100399.81;;;13.30;47.82
62152;BME280;48139;47.474;19.034;2023-03-03T13:55:16;100384.03;;;13.30;47.55
62152;BME280;48139;47.474;19.034;2023-03-03T13:58:36;100384.38;;;13.24;47.67
62152;BME280;48139;47.474;19.034;2023-03-03T14:02:02;100383.69;;;13.20;46.88
62152;BME280;48139;47.474;19.034;2023-03-03T14:05:50;100386.50;;;13.17;47.07
62152;BME280;48139;47.474;19.034;2023-03-03T14:19:27;100385.31;;;12.91;47.05
62152;BME280;48139;47.474;19.034;2023-03-03T14:32:26;100363.22;;;12.80;48.43
62152;BME280;48139;47.474;19.034;2023-03-03T14:39:01;100363.00;;;12.99;49.01
62152;BME280;48139;47.474;19.034;2023-03-03T14:42:30;100361.47;;;12.94;49.07
62152;BME280;48139;47.474;19.034;2023-03-03T14:45:41;100362.00;;;12.85;50.04
62152;BME280;48139;47.474;19.034;2023-03-03T14:48:54;100354.63;;;12.92;48.71
62152;BME280;48139;47.474;19.034;2023-03-03T14:52:01;100354.28;;;12.98;49.58
62152;BME280;48139;47.474;19.034;2023-03-03T14:55:34;100358.81;;;12.80;49.20
62152;BME280;48139;47.474;19.034;2023-03-03T14:58:40;100361.75;;;12.74;49.63
62152;BME280;48139;47.474;19.034;2023-03-03T15:01:43;100364.03;;;12.65;50.44
62152;BME280;48139;47.474;19.034;2023-03-03T15:04:47;100365.16;;;12.61;49.70
62152;BME280;48139;47.474;19.034;2023-03-03T15:07:54;100364.06;;;12.49;49.81
62152;BME280;48139;47.474;19.034;2023-03-03T15:11:33;100362.59;;;12.43;50.75
62152;BME280;48139;47.474;19.034;2023-03-03T15:14:42;100361.66;;;12.44;50.35
62152;BME280;48139;47.474;19.034;2023-03-03T15:21:06;100368.50;;;12.31;50.88
62152;BME280;48139;47.474;19.034;2023-03-03T15:24:28;100374.09;;;12.25;50.71
62152;BME280;48139;47.474;19.034;2023-03-03T15:27:38;100379.84;;;12.16;51.43
62152;BME280;48139;47.474;19.034;2023-03-03T15:40:47;100382.13;;;11.72;53.50
62152;BME280;48139;47.474;19.034;2023-03-03T15:50:34;100385.09;;;11.49;52.68
62152;BME280;48139;47.474;19.034;2023-03-03T15:53:56;100388.47;;;11.33;53.04
62152;BME280;48139;47.474;19.034;2023-03-03T16:00:36;100389.13;;;11.20;53.32
62152;BME280;48139;47.474;19.034;2023-03-03T16:03:45;100400.13;;;10.92;55.63
62152;BME280;48139;47.474;19.034;2023-03-03T16:13:35;100410.06;;;10.67;55.58
62152;BME280;48139;47.474;19.034;2023-03-03T16:23:16;100418.66;;;10.31;56.92
62152;BME280;48139;47.474;19.034;2023-03-03T16:26:59;100422.41;;;10.26;56.98
